Time,TemperatureF,DewpointF,PressureIn,WindDirection,WindDirectionDegrees,WindSpeedMPH,WindSpeedGustMPH,Humidity,HourlyPrecipIn,Conditions,Clouds,dailyrainin,SoftwareType,DateUTC
2013-12-18 00:01:00,42.8,33.7,29.80,West,275,0.0,3.1,70,0.00,,---,0.00,VWS V14.01,2013-12-18 05:01:00,
2013-12-18 00:03:00,42.8,33.7,29.80,WNW,285,2.6,2.6,70,0.00,,---,0.00,VWS V14.01,2013-12-18 05:03:00,
2013-12-18 00:06:00,42.6,33.9,29.80,WNW,286,0.0,0.0,71,0.00,,---,0.00,VWS V14.01,2013-12-18 05:06:00,
2013-12-18 00:07:00,42.6,33.9,29.80,WNW,283,3.1,4.6,71,0.00,,---,0.00,VWS V14.01,2013-12-18 05:07:00,
2013-12-18 00:08:00,42.6,33.9,29.80,West,260,3.1,3.1,71,0.00,,---,0.00,VWS V14.01,2013-12-18 05:08:00,
2013-12-18 00:11:00,42.8,33.7,29.80,WNW,286,0.0,4.6,70,0.00,,---,0.00,VWS V14.01,2013-12-18 05:11:00,
2013-12-18 00:16:00,42.6,33.9,29.80,WNW,287,4.1,5.7,71,0.00,,---,0.00,VWS V14.01,2013-12-18 05:16:00,
2013-12-18 00:22:00,42.4,33.7,29.80,WNW,286,4.6,5.7,71,0.00,,---,0.00,VWS V14.01,2013-12-18 05:22:00,
2013-12-18 00:27:00,42.3,33.5,29.80,West,276,6.2,8.7,71,0.00,,---,0.00,VWS V14.01,2013-12-18 05:27:00,
2013-12-18 00:33:00,42.1,33.4,29.80,WNW,302,7.2,7.2,71,0.00,,---,0.00,VWS V14.01,2013-12-18 05:33:00,
2013-12-18 00:39:00,42.1,33.0,29.77,WNW,289,4.6,6.2,70,0.00,,---,0.00,VWS V14.01,2013-12-18 05:39:00,
2013-12-18 00:44:00,41.9,32.8,29.77,WNW,301,3.6,6.2,70,0.00,,---,0.00,VWS V14.01,2013-12-18 05:44:00,
2013-12-18 00:50:00,41.7,32.7,29.77,WNW,297,3.6,6.2,70,0.00,,---,0.00,VWS V14.01,2013-12-18 05:50:00,
2013-12-18 00:56:00,41.7,32.7,29.77,WNW,291,2.6,6.7,70,0.00,,---,0.00,VWS V14.01,2013-12-18 05:56:00,
2013-12-18 01:01:00,41.7,33.0,29.77,West,278,5.7,6.2,71,0.00,,---,0.00,VWS V14.01,2013-12-18 06:01:00,
2013-12-18 01:07:00,41.9,33.2,29.77,WNW,283,4.1,6.2,71,0.00,,---,0.00,VWS V14.01,2013-12-18 06:07:00,
2013-12-18 01:12:00,41.9,33.2,29.77,WNW,295,4.1,6.7,71,0.00,,---,0.00,VWS V14.01,2013-12-18 06:12:00,
2013-12-18 01:18:00,42.1,33.4,29.77,WNW,300,5.7,7.2,71,0.00,,---,0.00,VWS V14.01,2013-12-18 06:18:00,
2013-12-18 01:24:00,42.1,33.4,29.77,WNW,295,4.1,7.7,71,0.00,,---,0.00,VWS V14.01,2013-12-18 06:24:00,
2013-12-18 01:29:00,42.1,33.4,29.77,North,357,5.7,6.2,71,0.00,,---,0.00,VWS V14.01,2013-12-18 06:29:00,
2013-12-18 01:35:00,42.3,33.5,29.74,NW,325,6.7,8.2,71,0.00,,---,0.00,VWS V14.01,2013-12-18 06:35:00,
2013-12-18 01:40:00,42.3,33.5,29.74,NNW,332,3.6,4.6,71,0.00,,---,0.00,VWS V14.01,2013-12-18 06:40:00,
2013-12-18 01:46:00,42.4,34.1,29.74,WNW,300,7.2,8.7,72,0.00,,---,0.00,VWS V14.01,2013-12-18 06:46:00,
2013-12-18 01:52:00,42.4,34.1,29.74,West,268,7.2,7.2,72,0.00,,---,0.00,VWS V14.01,2013-12-18 06:52:00,
2013-12-18 01:57:00,42.6,34.2,29.74,NW,316,3.1,7.2,72,0.00,,---,0.00,VWS V14.01,2013-12-18 06:57:00,
2013-12-18 02:02:00,42.6,34.2,29.74,WNW,301,7.2,8.7,72,0.00,,---,0.00,VWS V14.01,2013-12-18 07:02:00,
2013-12-18 02:07:00,42.6,34.2,29.74,NW,317,4.6,7.2,72,0.00,,---,0.00,VWS V14.01,2013-12-18 07:07:00,
2013-12-18 02:13:00,42.6,34.2,29.74,NNW,339,9.3,9.3,72,0.00,,---,0.00,VWS V14.01,2013-12-18 07:13:00,
2013-12-18 02:18:00,42.6,34.2,29.74,NW,317,6.2,9.5,72,0.00,,---,0.00,VWS V14.01,2013-12-18 07:18:00,
2013-12-18 02:24:00,42.4,34.1,29.71,NNW,332,6.2,9.5,72,0.00,,---,0.00,VWS V14.01,2013-12-18 07:24:00,
2013-12-18 02:29:00,42.6,34.2,29.71,WNW,301,4.1,8.7,72,0.00,,---,0.00,VWS V14.01,2013-12-18 07:29:00,
2013-12-18 02:35:00,42.4,34.1,29.71,NNW,327,0.0,0.0,72,0.00,,---,0.00,VWS V14.01,2013-12-18 07:35:00,
2013-12-18 02:40:00,42.4,34.1,29.71,NNW,330,0.0,0.0,72,0.00,,---,0.00,VWS V14.01,2013-12-18 07:40:00,
2013-12-18 02:46:00,42.4,34.1,29.71,NNW,341,0.0,0.0,72,0.00,,---,0.00,VWS V14.01,2013-12-18 07:46:00,
2013-12-18 02:52:00,42.4,34.1,29.71,NW,305,0.0,0.0,72,0.00,,---,0.00,VWS V14.01,2013-12-18 07:52:00,
2013-12-18 02:57:00,42.4,34.1,29.71,WNW,282,0.0,0.0,72,0.00,,---,0.00,VWS V14.01,2013-12-18 07:57:00,
2013-12-18 03:02:00,42.4,34.1,29.71,NW,307,0.0,0.0,72,0.00,,---,0.00,VWS V14.01,2013-12-18 08:02:00,
2013-12-18 03:07:00,42.4,33.7,29.71,WNW,295,0.0,0.0,71,0.00,,---,0.00,VWS V14.01,2013-12-18 08:07:00,
2013-12-18 03:13:00,42.3,33.5,29.71,NW,323,0.0,0.0,71,0.00,,---,0.00,VWS V14.01,2013-12-18 08:13:00,
2013-12-18 03:18:00,42.1,33.4,29.71,WNW,290,0.0,0.0,71,0.00,,---,0.00,VWS V14.01,2013-12-18 08:18:00,
2013-12-18 03:23:00,42.1,33.4,29.68,NNW,337,0.0,0.0,71,0.00,,---,0.00,VWS V14.01,2013-12-18 08:23:00,
2013-12-18 03:28:00,42.1,33.4,29.68,NNW,329,0.0,0.0,71,0.00,,---,0.00,VWS V14.01,2013-12-18 08:28:00,
2013-12-18 03:34:00,42.3,33.5,29.65,WSW,258,0.0,0.0,71,0.00,,---,0.00,VWS V14.01,2013-12-18 08:34:00,
2013-12-18 03:39:00,42.3,33.5,29.65,NW,312,0.0,0.0,71,0.00,,---,0.00,VWS V14.01,2013-12-18 08:39:00,
2013-12-18 03:44:00,42.3,33.5,29.65,NNW,335,0.0,0.0,71,0.00,,---,0.00,VWS V14.01,2013-12-18 08:44:00,
2013-12-18 03:49:00,42.3,33.5,29.68,NW,309,0.0,0.0,71,0.00,,---,0.00,VWS V14.01,2013-12-18 08:49:00,
2013-12-18 03:55:00,42.4,33.7,29.68,WNW,297,0.0,0.0,71,0.00,,---,0.00,VWS V14.01,2013-12-18 08:55:00,
2013-12-18 04:00:00,42.4,33.7,29.68,NNW,333,0.0,0.0,71,0.00,,---,0.00,VWS V14.01,2013-12-18 09:00:00,
2013-12-18 04:06:00,42.3,33.5,29.71,North,357,0.0,0.0,71,0.00,,---,0.00,VWS V14.01,2013-12-18 09:06:00,
2013-12-18 04:12:00,42.3,33.5,29.71,West,273,0.0,0.0,71,0.00,,---,0.00,VWS V14.01,2013-12-18 09:12:00,
2013-12-18 04:17:00,42.3,33.5,29.71,NNE,22,0.0,0.0,71,0.00,,---,0.00,VWS V14.01,2013-12-18 09:17:00,
2013-12-18 04:22:00,42.3,33.5,29.71,West,280,0.0,0.0,71,0.00,,---,0.00,VWS V14.01,2013-12-18 09:22:00,
2013-12-18 04:28:00,42.3,33.5,29.71,WNW,293,0.0,0.0,71,0.00,,---,0.00,VWS V14.01,2013-12-18 09:28:00,
2013-12-18 04:34:00,42.1,33.4,29.68,WNW,288,0.0,0.0,71,0.00,,---,0.00,VWS V14.01,2013-12-18 09:34:00,
2013-12-18 04:39:00,42.1,33.4,29.68,WNW,301,0.0,0.0,71,0.00,,---,0.00,VWS V14.01,2013-12-18 09:39:00,
2013-12-18 04:45:00,42.1,33.4,29.68,NNW,337,0.0,0.0,71,0.00,,---,0.00,VWS V14.01,2013-12-18 09:45:00,
2013-12-18 04:51:00,42.1,33.4,29.71,North,11,0.0,0.0,71,0.00,,---,0.00,VWS V14.01,2013-12-18 09:51:00,
2013-12-18 04:56:00,41.9,32.8,29.71,North,357,0.0,0.0,70,0.00,,---,0.00,VWS V14.01,2013-12-18 09:56:00,
2013-12-18 05:02:00,41.9,32.8,29.71,NNW,329,0.0,0.0,70,0.00,,---,0.00,VWS V14.01,2013-12-18 10:02:00,
2013-12-18 05:08:00,41.7,32.7,29.68,NNE,16,0.0,0.0,70,0.00,,---,0.00,VWS V14.01,2013-12-18 10:08:00,
2013-12-18 05:13:00,41.7,32.7,29.68,WNW,299,0.0,0.0,70,0.00,,---,0.00,VWS V14.01,2013-12-18 10:13:00,
2013-12-18 05:19:00,41.7,32.7,29.68,NW,320,0.0,0.0,70,0.00,,---,0.00,VWS V14.01,2013-12-18 10:19:00,
2013-12-18 05:24:00,41.5,32.5,29.68,NNW,329,0.0,0.0,70,0.00,,---,0.00,VWS V14.01,2013-12-18 10:24:00,
2013-12-18 05:30:00,41.7,32.7,29.68,NW,321,0.0,0.0,70,0.00,,---,0.00,VWS V14.01,2013-12-18 10:30:00,
2013-12-18 05:35:00,41.7,32.7,29.71,NW,320,0.0,0.0,70,0.00,,---,0.00,VWS V14.01,2013-12-18 10:35:00,
2013-12-18 05:41:00,41.5,32.5,29.71,NW,321,0.0,0.0,70,0.00,,---,0.00,VWS V14.01,2013-12-18 10:41:00,
2013-12-18 05:47:00,41.2,31.8,29.71,NW,312,0.0,0.0,69,0.00,,---,0.00,VWS V14.01,2013-12-18 10:47:00,
2013-12-18 05:52:00,41.2,31.8,29.71,WNW,284,0.0,0.0,69,0.00,,---,0.00,VWS V14.01,2013-12-18 10:52:00,
2013-12-18 05:57:00,40.8,31.5,29.71,NW,310,0.0,0.0,69,0.00,,---,0.00,VWS V14.01,2013-12-18 10:57:00,
2013-12-18 06:02:00,40.6,31.3,29.71,WNW,291,0.0,0.0,69,0.00,,---,0.00,VWS V14.01,2013-12-18 11:02:00,
2013-12-18 06:09:00,40.5,31.1,29.74,North,0,0.0,0.0,69,0.00,,---,0.00,VWS V14.01,2013-12-18 11:09:00,
2013-12-18 06:15:00,40.1,30.8,29.74,North,357,0.0,0.0,69,0.00,,---,0.00,VWS V14.01,2013-12-18 11:15:00,
2013-12-18 06:20:00,39.9,30.6,29.74,WNW,303,0.0,0.0,69,0.00,,---,0.00,VWS V14.01,2013-12-18 11:20:00,
2013-12-18 06:26:00,39.7,30.1,29.74,NW,308,0.0,0.0,68,0.00,,---,0.00,VWS V14.01,2013-12-18 11:26:00,
2013-12-18 06:32:00,39.4,29.7,29.74,SW,216,0.0,0.0,68,0.00,,---,0.00,VWS V14.01,2013-12-18 11:32:00,
2013-12-18 06:37:00,39.2,29.5,29.74,NW,316,0.0,0.0,68,0.00,,---,0.00,VWS V14.01,2013-12-18 11:37:00,
2013-12-18 06:43:00,38.8,29.2,29.74,NW,313,0.0,0.0,68,0.00,,---,0.00,VWS V14.01,2013-12-18 11:43:00,
2013-12-18 06:48:00,38.7,29.0,29.74,WNW,300,0.0,0.0,68,0.00,,---,0.00,VWS V14.01,2013-12-18 11:48:00,
2013-12-18 06:54:00,38.5,28.9,29.77,NW,310,0.0,0.0,68,0.00,,---,0.00,VWS V14.01,2013-12-18 11:54:00,
2013-12-18 06:59:00,37.9,28.0,29.77,NNW,336,0.0,0.0,67,0.00,,---,0.00,VWS V14.01,2013-12-18 11:59:00,
2013-12-18 07:05:00,37.6,27.6,29.77,NW,307,0.0,0.0,67,0.00,,---,0.00,VWS V14.01,2013-12-18 12:05:00,
2013-12-18 07:10:00,37.2,27.3,29.77,West,271,0.0,0.0,67,0.00,,---,0.00,VWS V14.01,2013-12-18 12:10:00,
2013-12-18 07:15:00,36.7,26.8,29.77,WNW,286,0.0,0.0,67,0.00,,---,0.00,VWS V14.01,2013-12-18 12:15:00,
2013-12-18 07:21:00,36.3,26.4,29.77,West,277,0.0,0.0,67,0.00,,---,0.00,VWS V14.01,2013-12-18 12:21:00,
2013-12-18 07:26:00,36.1,26.3,29.77,NNW,346,0.0,0.0,67,0.00,,---,0.00,VWS V14.01,2013-12-18 12:26:00,
2013-12-18 07:32:00,36.0,26.1,29.77,WNW,283,0.0,0.0,67,0.00,,---,0.00,VWS V14.01,2013-12-18 12:32:00,
2013-12-18 07:37:00,35.8,25.9,29.80,NNW,329,0.0,0.0,67,0.00,,---,0.00,VWS V14.01,2013-12-18 12:37:00,
2013-12-18 07:43:00,35.6,25.7,29.80,NW,316,0.0,0.0,67,0.00,,---,0.00,VWS V14.01,2013-12-18 12:43:00,
2013-12-18 07:49:00,35.4,25.6,29.80,NW,312,0.0,0.0,67,0.00,,---,0.00,VWS V14.01,2013-12-18 12:49:00,
2013-12-18 07:54:00,35.2,25.8,29.80,NW,306,0.0,0.0,68,0.00,,---,0.00,VWS V14.01,2013-12-18 12:54:00,
2013-12-18 08:00:00,35.1,25.6,29.80,West,268,0.0,0.0,68,0.00,,---,0.00,VWS V14.01,2013-12-18 13:00:00,
2013-12-18 08:05:00,34.9,25.4,29.83,NW,323,0.0,0.0,68,0.00,,---,0.00,VWS V14.01,2013-12-18 13:05:00,
2013-12-18 08:10:00,34.9,25.4,29.83,NW,321,0.0,0.0,68,0.00,,---,0.00,VWS V14.01,2013-12-18 13:10:00,
2013-12-18 08:15:00,34.5,24.7,29.83,NNW,341,0.0,0.0,67,0.00,,---,0.00,VWS V14.01,2013-12-18 13:15:00,
2013-12-18 08:21:00,34.5,24.7,29.83,WNW,284,0.0,0.0,67,0.00,,---,0.00,VWS V14.01,2013-12-18 13:21:00,
2013-12-18 08:26:00,34.7,24.9,29.83,NW,304,0.0,0.0,67,0.00,,---,0.00,VWS V14.01,2013-12-18 13:26:00,
2013-12-18 08:32:00,34.7,24.9,29.83,WNW,301,0.0,0.0,67,0.00,,---,0.00,VWS V14.01,2013-12-18 13:32:00,
2013-12-18 08:38:00,34.9,25.0,29.83,WNW,286,0.0,0.0,67,0.00,,---,0.00,VWS V14.01,2013-12-18 13:38:00,
2013-12-18 08:43:00,34.9,25.0,29.83,WNW,289,0.0,0.0,67,0.00,,---,0.00,VWS V14.01,2013-12-18 13:43:00,
2013-12-18 08:49:00,34.9,25.0,29.83,NW,323,0.0,0.0,67,0.00,,---,0.00,VWS V14.01,2013-12-18 13:49:00,
2013-12-18 08:54:00,35.1,25.2,29.83,West,280,0.0,0.0,67,0.00,,---,0.00,VWS V14.01,2013-12-18 13:54:00,
2013-12-18 09:00:00,35.1,25.2,29.83,WNW,300,0.0,0.0,67,0.00,,---,0.00,VWS V14.01,2013-12-18 14:00:00,
2013-12-18 09:05:00,35.1,25.2,29.83,West,278,0.0,0.0,67,0.00,,---,0.00,VWS V14.01,2013-12-18 14:05:00,
2013-12-18 09:11:00,35.2,25.0,29.83,WNW,288,0.0,0.0,66,0.00,,---,0.00,VWS V14.01,2013-12-18 14:11:00,
2013-12-18 09:17:00,35.4,25.2,29.83,NNW,342,0.0,0.0,66,0.00,,---,0.00,VWS V14.01,2013-12-18 14:17:00,
2013-12-18 09:22:00,35.4,24.8,29.83,NW,320,0.0,0.0,65,0.00,,---,0.00,VWS V14.01,2013-12-18 14:22:00,
2013-12-18 09:28:00,35.4,24.5,29.83,NNW,338,0.0,0.0,64,0.00,,---,0.00,VWS V14.01,2013-12-18 14:28:00,
2013-12-18 09:34:00,35.4,24.5,29.83,NW,309,0.0,0.0,64,0.00,,---,0.00,VWS V14.01,2013-12-18 14:34:00,
2013-12-18 09:39:00,35.6,24.3,29.83,West,273,0.0,0.0,63,0.00,,---,0.00,VWS V14.01,2013-12-18 14:39:00,
2013-12-18 09:45:00,35.8,24.4,29.83,NW,304,0.0,0.0,63,0.00,,---,0.00,VWS V14.01,2013-12-18 14:45:00,
2013-12-18 09:50:00,35.8,24.4,29.83,NW,313,0.0,0.0,63,0.00,,---,0.00,VWS V14.01,2013-12-18 14:50:00,
2013-12-18 09:56:00,36.0,24.2,29.83,NNW,338,0.0,0.0,62,0.00,,---,0.00,VWS V14.01,2013-12-18 14:56:00,
2013-12-18 10:02:00,36.1,24.0,29.83,West,280,0.0,0.0,61,0.00,,---,0.00,VWS V14.01,2013-12-18 15:02:00,
2013-12-18 10:07:00,36.3,23.8,29.83,NW,311,0.0,0.0,60,0.00,,---,0.00,VWS V14.01,2013-12-18 15:07:00,
2013-12-18 10:13:00,36.9,23.5,29.83,WSW,254,0.0,0.0,58,0.00,,---,0.00,VWS V14.01,2013-12-18 15:13:00,
2013-12-18 10:18:00,37.2,23.4,29.83,WNW,293,0.0,0.0,57,0.00,,---,0.00,VWS V14.01,2013-12-18 15:18:00,
2013-12-18 10:23:00,37.8,23.1,29.83,NNW,341,0.0,0.0,55,0.00,,---,0.00,VWS V14.01,2013-12-18 15:23:00,
2013-12-18 10:28:00,38.3,23.1,29.83,West,260,0.0,0.0,54,0.00,,---,0.00,VWS V14.01,2013-12-18 15:28:00,
2013-12-18 10:34:00,38.3,22.2,29.83,NNW,343,0.0,0.0,52,0.00,,---,0.00,VWS V14.01,2013-12-18 15:34:00,
2013-12-18 10:39:00,38.1,19.7,29.83,NNW,331,0.0,0.0,47,0.00,,---,0.00,VWS V14.01,2013-12-18 15:39:00,
2013-12-18 10:44:00,37.9,19.0,29.83,NNW,346,0.0,0.0,46,0.00,,---,0.00,VWS V14.01,2013-12-18 15:44:00,
2013-12-18 10:49:00,37.6,17.7,29.83,NW,324,0.0,0.0,44,0.00,,---,0.00,VWS V14.01,2013-12-18 15:49:00,
2013-12-18 10:54:00,37.4,17.5,29.83,West,279,0.0,0.0,44,0.00,,---,0.00,VWS V14.01,2013-12-18 15:54:00,
2013-12-18 10:59:00,37.2,17.9,29.83,WNW,284,0.0,0.0,45,0.00,,---,0.00,VWS V14.01,2013-12-18 15:59:00,
2013-12-18 11:05:00,37.4,17.5,29.83,NNW,342,0.0,0.0,44,0.00,,---,0.00,VWS V14.01,2013-12-18 16:05:00,
2013-12-18 11:10:00,37.4,17.5,29.83,WNW,296,0.0,0.0,44,0.00,,---,0.00,VWS V14.01,2013-12-18 16:10:00,
2013-12-18 11:16:00,37.4,17.0,29.83,NW,312,0.0,0.0,43,0.00,,---,0.00,VWS V14.01,2013-12-18 16:16:00,
2013-12-18 11:21:00,37.4,17.0,29.83,NW,313,0.0,0.0,43,0.00,,---,0.00,VWS V14.01,2013-12-18 16:21:00,
2013-12-18 11:27:00,37.2,16.3,29.83,West,279,0.0,0.0,42,0.00,,---,0.00,VWS V14.01,2013-12-18 16:27:00,
2013-12-18 11:32:00,37.2,16.3,29.83,NNW,333,0.0,0.0,42,0.00,,---,0.00,VWS V14.01,2013-12-18 16:32:00,
2013-12-18 11:38:00,37.6,16.0,29.83,NNW,331,0.0,0.0,41,0.00,,---,0.00,VWS V14.01,2013-12-18 16:38:00,
2013-12-18 11:44:00,37.4,14.7,29.83,WNW,294,0.0,0.0,39,0.00,,---,0.00,VWS V14.01,2013-12-18 16:44:00,
2013-12-18 11:49:00,37.6,14.9,29.83,WNW,285,0.0,0.0,39,0.00,,---,0.00,VWS V14.01,2013-12-18 16:49:00,
2013-12-18 11:55:00,37.9,14.6,29.83,NW,316,0.0,0.0,38,0.00,,---,0.00,VWS V14.01,2013-12-18 16:55:00,
2013-12-18 12:01:00,38.1,14.2,29.83,WNW,283,0.0,0.0,37,0.00,,---,0.00,VWS V14.01,2013-12-18 17:01:00,
2013-12-18 12:06:00,37.9,13.4,29.83,NW,304,0.0,0.0,36,0.00,,---,0.00,VWS V14.01,2013-12-18 17:06:00,
2013-12-18 12:12:00,38.1,12.9,29.83,WNW,303,0.0,0.0,35,0.00,,---,0.00,VWS V14.01,2013-12-18 17:12:00,
2013-12-18 12:17:00,37.8,12.6,29.83,West,260,0.0,0.0,35,0.00,,---,0.00,VWS V14.01,2013-12-18 17:17:00,
2013-12-18 12:23:00,37.4,12.3,29.85,NW,308,0.0,0.0,35,0.00,,---,0.00,VWS V14.01,2013-12-18 17:23:00,
2013-12-18 12:29:00,37.4,12.3,29.85,NW,314,0.0,0.0,35,0.00,,---,0.00,VWS V14.01,2013-12-18 17:29:00,
2013-12-18 12:34:00,37.4,12.3,29.85,WNW,303,0.0,0.0,35,0.00,,---,0.00,VWS V14.01,2013-12-18 17:34:00,
2013-12-18 12:40:00,37.2,12.1,29.85,West,280,0.0,0.0,35,0.00,,---,0.00,VWS V14.01,2013-12-18 17:40:00,
2013-12-18 12:45:00,37.4,11.6,29.85,WNW,292,0.0,0.0,34,0.00,,---,0.00,VWS V14.01,2013-12-18 17:45:00,
2013-12-18 12:51:00,36.9,10.5,29.85,NW,316,0.0,0.0,33,0.00,,---,0.00,VWS V14.01,2013-12-18 17:51:00,
2013-12-18 12:56:00,36.7,10.3,29.85,North,349,0.0,0.0,33,0.00,,---,0.00,VWS V14.01,2013-12-18 17:56:00,
2013-12-18 13:02:00,36.9,11.1,29.85,WNW,302,0.0,0.0,34,0.00,,---,0.00,VWS V14.01,2013-12-18 18:02:00,
2013-12-18 13:07:00,37.4,11.6,29.85,WNW,296,0.0,0.0,34,0.00,,---,0.00,VWS V14.01,2013-12-18 18:07:00,
2013-12-18 13:12:00,37.2,11.4,29.85,SW,236,0.0,0.0,34,0.00,,---,0.00,VWS V14.01,2013-12-18 18:12:00,
2013-12-18 13:18:00,37.2,11.4,29.85,NW,326,0.0,0.0,34,0.00,,---,0.00,VWS V14.01,2013-12-18 18:18:00,
2013-12-18 13:23:00,37.0,10.6,29.85,WNW,291,0.0,0.0,33,0.00,,---,0.00,VWS V14.01,2013-12-18 18:23:00,
2013-12-18 13:29:00,36.9,10.5,29.85,NW,319,0.0,0.0,33,0.00,,---,0.00,VWS V14.01,2013-12-18 18:29:00,
2013-12-18 13:34:00,36.9,10.5,29.85,NW,305,0.0,0.0,33,0.00,,---,0.00,VWS V14.01,2013-12-18 18:34:00,
2013-12-18 13:40:00,36.7,10.3,29.88,WSW,238,0.0,0.0,33,0.00,,---,0.00,VWS V14.01,2013-12-18 18:40:00,
2013-12-18 13:45:00,36.3,10.0,29.88,WNW,282,0.0,0.0,33,0.00,,---,0.00,VWS V14.01,2013-12-18 18:45:00,
2013-12-18 13:51:00,36.3,10.0,29.88,WSW,252,0.0,0.0,33,0.00,,---,0.00,VWS V14.01,2013-12-18 18:51:00,
2013-12-18 13:57:00,36.0,9.7,29.88,West,275,0.0,0.0,33,0.00,,---,0.00,VWS V14.01,2013-12-18 18:57:00,
2013-12-18 14:02:00,36.1,9.8,29.88,WNW,291,0.0,0.0,33,0.00,,---,0.00,VWS V14.01,2013-12-18 19:02:00,
2013-12-18 14:08:00,36.1,9.8,29.88,NW,316,0.0,0.0,33,0.00,,---,0.00,VWS V14.01,2013-12-18 19:08:00,
2013-12-18 14:14:00,36.1,9.8,29.88,WNW,283,0.0,0.0,33,0.00,,---,0.00,VWS V14.01,2013-12-18 19:14:00,
2013-12-18 14:19:00,36.1,9.1,29.88,NW,320,0.0,0.0,32,0.00,,---,0.00,VWS V14.01,2013-12-18 19:19:00,
2013-12-18 14:25:00,35.8,8.8,29.88,NNW,345,0.0,0.0,32,0.00,,---,0.00,VWS V14.01,2013-12-18 19:25:00,
2013-12-18 14:30:00,35.8,7.4,29.88,NW,306,0.0,0.0,30,0.00,,---,0.00,VWS V14.01,2013-12-18 19:30:00,
2013-12-18 14:36:00,35.8,7.4,29.91,NW,313,0.0,0.0,30,0.00,,---,0.00,VWS V14.01,2013-12-18 19:36:00,
2013-12-18 14:42:00,35.6,7.2,29.91,West,271,0.0,0.0,30,0.00,,---,0.00,VWS V14.01,2013-12-18 19:42:00,
2013-12-18 14:47:00,35.4,5.6,29.91,WNW,298,0.0,0.0,28,0.00,,---,0.00,VWS V14.01,2013-12-18 19:47:00,
2013-12-18 14:53:00,35.4,5.6,29.91,WNW,303,0.0,0.0,28,0.00,,---,0.00,VWS V14.01,2013-12-18 19:53:00,
2013-12-18 14:58:00,35.2,5.4,29.91,NW,304,0.0,0.0,28,0.00,,---,0.00,VWS V14.01,2013-12-18 19:58:00,
2013-12-18 15:04:00,35.2,5.4,29.91,WNW,298,0.0,0.0,28,0.00,,---,0.00,VWS V14.01,2013-12-18 20:04:00,
2013-12-18 15:10:00,35.2,5.4,29.91,NW,310,0.0,0.0,28,0.00,,---,0.00,VWS V14.01,2013-12-18 20:10:00,
2013-12-18 15:15:00,35.1,5.3,29.91,NW,326,0.0,0.0,28,0.00,,---,0.00,VWS V14.01,2013-12-18 20:15:00,
2013-12-18 15:20:00,35.1,2.8,29.91,NW,307,0.0,0.0,25,0.00,,---,0.00,VWS V14.01,2013-12-18 20:20:00,
2013-12-18 15:25:00,35.1,5.3,29.91,West,262,0.0,0.0,28,0.00,,---,0.00,VWS V14.01,2013-12-18 20:25:00,
2013-12-18 15:31:00,35.1,5.3,29.91,WNW,297,0.0,0.0,28,0.00,,---,0.00,VWS V14.01,2013-12-18 20:31:00,
2013-12-18 15:36:00,35.2,5.4,29.94,WNW,283,0.0,0.0,28,0.00,,---,0.00,VWS V14.01,2013-12-18 20:36:00,
2013-12-18 15:42:00,35.4,5.6,29.94,West,265,0.0,0.0,28,0.00,,---,0.00,VWS V14.01,2013-12-18 20:42:00,
2013-12-18 15:47:00,35.2,5.4,29.94,NW,311,0.0,0.0,28,0.00,,---,0.00,VWS V14.01,2013-12-18 20:47:00,
2013-12-18 15:53:00,35.2,5.4,29.94,WNW,287,0.0,0.0,28,0.00,,---,0.00,VWS V14.01,2013-12-18 20:53:00,
2013-12-18 15:58:00,35.1,5.3,29.94,West,267,0.0,0.0,28,0.00,,---,0.00,VWS V14.01,2013-12-18 20:58:00,
2013-12-18 16:04:00,34.9,5.1,29.94,WNW,292,0.0,0.0,28,0.00,,---,0.00,VWS V14.01,2013-12-18 21:04:00,
2013-12-18 16:10:00,34.7,4.9,29.94,NW,315,0.0,0.0,28,0.00,,---,0.00,VWS V14.01,2013-12-18 21:10:00,
2013-12-18 16:15:00,34.5,2.3,29.94,West,267,0.0,0.0,25,0.00,,---,0.00,VWS V14.01,2013-12-18 21:15:00,
2013-12-18 16:21:00,34.5,2.3,29.94,NW,318,0.0,0.0,25,0.00,,---,0.00,VWS V14.01,2013-12-18 21:21:00,
2013-12-18 16:27:00,34.7,2.5,29.94,WNW,291,0.0,0.0,25,0.00,,---,0.00,VWS V14.01,2013-12-18 21:27:00,
2013-12-18 16:32:00,34.7,2.5,29.94,WNW,293,0.0,0.0,25,0.00,,---,0.00,VWS V14.01,2013-12-18 21:32:00,
2013-12-18 16:38:00,34.9,2.6,29.94,WNW,294,0.0,0.0,25,0.00,,---,0.00,VWS V14.01,2013-12-18 21:38:00,
2013-12-18 16:43:00,35.1,2.8,29.94,WNW,298,0.0,0.0,25,0.00,,---,0.00,VWS V14.01,2013-12-18 21:43:00,
2013-12-18 16:49:00,35.1,2.8,29.94,NW,309,0.0,0.0,25,0.00,,---,0.00,VWS V14.01,2013-12-18 21:49:00,
2013-12-18 16:55:00,35.1,2.8,29.94,WNW,301,0.0,0.0,25,0.00,,---,0.00,VWS V14.01,2013-12-18 21:55:00,
2013-12-18 17:00:00,34.9,2.6,29.94,WNW,293,0.0,0.0,25,0.00,,---,0.00,VWS V14.01,2013-12-18 22:00:00,
2013-12-18 17:06:00,34.9,2.6,29.94,WNW,285,0.0,0.0,25,0.00,,---,0.00,VWS V14.01,2013-12-18 22:06:00,
2013-12-18 17:11:00,34.7,2.5,29.94,WNW,293,0.0,0.0,25,0.00,,---,0.00,VWS V14.01,2013-12-18 22:11:00,
2013-12-18 17:17:00,34.5,2.3,29.94,West,281,0.0,0.0,25,0.00,,---,0.00,VWS V14.01,2013-12-18 22:17:00,
2013-12-18 17:22:00,34.5,2.3,29.97,NW,323,0.0,0.0,25,0.00,,---,0.00,VWS V14.01,2013-12-18 22:22:00,
2013-12-18 17:28:00,34.2,2.0,29.97,WNW,289,0.0,0.0,25,0.00,,---,0.00,VWS V14.01,2013-12-18 22:28:00,
2013-12-18 17:33:00,34.0,1.9,29.97,WNW,303,0.0,0.0,25,0.00,,---,0.00,VWS V14.01,2013-12-18 22:33:00,
2013-12-18 17:38:00,34.0,1.9,29.97,NW,324,0.0,0.0,25,0.00,,---,0.00,VWS V14.01,2013-12-18 22:38:00,
2013-12-18 17:44:00,34.2,2.0,29.97,West,276,0.0,0.0,25,0.00,,---,0.00,VWS V14.01,2013-12-18 22:44:00,
2013-12-18 17:49:00,34.0,1.9,29.97,WNW,284,0.0,0.0,25,0.00,,---,0.00,VWS V14.01,2013-12-18 22:49:00,
2013-12-18 17:55:00,34.0,1.9,29.97,NW,308,0.0,0.0,25,0.00,,---,0.00,VWS V14.01,2013-12-18 22:55:00,
2013-12-18 18:00:00,33.8,1.7,29.97,WNW,302,0.0,0.0,25,0.00,,---,0.00,VWS V14.01,2013-12-18 23:00:00,
2013-12-18 18:05:00,33.8,1.7,29.97,WSW,249,0.0,0.0,25,0.00,,---,0.00,VWS V14.01,2013-12-18 23:05:00,
2013-12-18 18:10:00,33.8,1.7,29.97,NW,306,0.0,0.0,25,0.00,,---,0.00,VWS V14.01,2013-12-18 23:10:00,
2013-12-18 18:16:00,33.8,4.2,29.97,South,179,0.0,0.0,28,0.00,,---,0.00,VWS V14.01,2013-12-18 23:16:00,
2013-12-18 18:21:00,33.8,4.2,30.00,WNW,290,0.0,0.0,28,0.00,,---,0.00,VWS V14.01,2013-12-18 23:21:00,
2013-12-18 18:27:00,33.8,4.2,30.00,SW,236,0.0,0.0,28,0.00,,---,0.00,VWS V14.01,2013-12-18 23:27:00,
2013-12-18 18:33:00,33.6,4.0,30.00,WNW,288,0.0,0.0,28,0.00,,---,0.00,VWS V14.01,2013-12-18 23:33:00,
2013-12-18 18:38:00,33.6,4.0,30.00,SW,220,0.0,0.0,28,0.00,,---,0.00,VWS V14.01,2013-12-18 23:38:00,
2013-12-18 18:44:00,33.6,4.0,30.00,WNW,286,0.0,0.0,28,0.00,,---,0.00,VWS V14.01,2013-12-18 23:44:00,
2013-12-18 18:49:00,33.6,4.0,30.03,West,266,0.0,0.0,28,0.00,,---,0.00,VWS V14.01,2013-12-18 23:49:00,
2013-12-18 18:55:00,33.6,4.0,30.03,West,260,0.0,0.0,28,0.00,,---,0.00,VWS V14.01,2013-12-18 23:55:00,
2013-12-18 19:01:00,33.4,3.8,30.03,WNW,291,0.0,0.0,28,0.00,,---,0.00,VWS V14.01,2013-12-19 00:01:00,
2013-12-18 19:06:00,33.4,3.8,30.03,West,276,0.0,0.0,28,0.00,,---,0.00,VWS V14.01,2013-12-19 00:06:00,
2013-12-18 19:11:00,33.6,4.0,30.03,WNW,302,0.0,0.0,28,0.00,,---,0.00,VWS V14.01,2013-12-19 00:11:00,
2013-12-18 19:16:00,33.6,4.0,30.03,West,278,0.0,0.0,28,0.00,,---,0.00,VWS V14.01,2013-12-19 00:16:00,
2013-12-18 19:22:00,33.4,3.8,30.03,SSW,207,0.0,0.0,28,0.00,,---,0.00,VWS V14.01,2013-12-19 00:22:00,
2013-12-18 19:27:00,33.3,3.7,30.03,WNW,286,0.0,0.0,28,0.00,,---,0.00,VWS V14.01,2013-12-19 00:27:00,
2013-12-18 19:32:00,33.4,3.8,30.03,West,267,0.0,0.0,28,0.00,,---,0.00,VWS V14.01,2013-12-19 00:32:00,
2013-12-18 19:37:00,33.4,3.8,30.03,WSW,253,0.0,0.0,28,0.00,,---,0.00,VWS V14.01,2013-12-19 00:37:00,
2013-12-18 19:43:00,33.3,3.7,30.03,WNW,291,0.0,0.0,28,0.00,,---,0.00,VWS V14.01,2013-12-19 00:43:00,
2013-12-18 19:49:00,33.3,3.7,30.03,SW,225,0.0,0.0,28,0.00,,---,0.00,VWS V14.01,2013-12-19 00:49:00,
2013-12-18 19:55:00,33.3,3.7,30.03,NNW,339,0.0,0.0,28,0.00,,---,0.00,VWS V14.01,2013-12-19 00:55:00,
2013-12-18 20:01:00,33.3,3.7,30.03,West,273,0.0,0.0,28,0.00,,---,0.00,VWS V14.01,2013-12-19 01:01:00,
2013-12-18 20:06:00,33.3,5.9,30.03,West,263,0.0,0.0,31,0.00,,---,0.00,VWS V14.01,2013-12-19 01:06:00,
2013-12-18 20:12:00,33.3,5.9,30.03,West,270,0.0,0.0,31,0.00,,---,0.00,VWS V14.01,2013-12-19 01:12:00,
2013-12-18 20:17:00,33.3,5.9,30.03,WNW,302,0.0,0.0,31,0.00,,---,0.00,VWS V14.01,2013-12-19 01:17:00,
2013-12-18 20:23:00,33.3,5.9,30.03,WNW,284,0.0,0.0,31,0.00,,---,0.00,VWS V14.01,2013-12-19 01:23:00,
2013-12-18 20:29:00,33.3,5.9,30.03,WSW,256,0.0,0.0,31,0.00,,---,0.00,VWS V14.01,2013-12-19 01:29:00,
2013-12-18 20:34:00,33.4,6.1,30.03,West,265,0.0,0.0,31,0.00,,---,0.00,VWS V14.01,2013-12-19 01:34:00,
2013-12-18 20:40:00,33.4,6.1,30.06,WSW,252,0.0,0.0,31,0.00,,---,0.00,VWS V14.01,2013-12-19 01:40:00,
2013-12-18 20:46:00,33.4,6.1,30.06,West,262,0.0,0.0,31,0.00,,---,0.00,VWS V14.01,2013-12-19 01:46:00,
2013-12-18 20:51:00,33.4,6.1,30.06,WNW,298,0.0,0.0,31,0.00,,---,0.00,VWS V14.01,2013-12-19 01:51:00,
2013-12-18 20:57:00,33.3,5.9,30.06,West,270,0.0,0.0,31,0.00,,---,0.00,VWS V14.01,2013-12-19 01:57:00,
2013-12-18 21:02:00,33.3,5.9,30.06,SSW,211,0.0,0.0,31,0.00,,---,0.00,VWS V14.01,2013-12-19 02:02:00,
2013-12-18 21:08:00,33.3,5.9,30.06,SW,235,0.0,0.0,31,0.00,,---,0.00,VWS V14.01,2013-12-19 02:08:00,
2013-12-18 21:14:00,33.3,5.9,30.06,WNW,284,0.0,0.0,31,0.00,,---,0.00,VWS V14.01,2013-12-19 02:14:00,
2013-12-18 21:19:00,33.3,5.9,30.06,WNW,302,0.0,0.0,31,0.00,,---,0.00,VWS V14.01,2013-12-19 02:19:00,
2013-12-18 21:25:00,33.3,5.9,30.06,SW,214,0.0,0.0,31,0.00,,---,0.00,VWS V14.01,2013-12-19 02:25:00,
2013-12-18 21:30:00,33.3,5.9,30.06,WNW,298,0.0,0.0,31,0.00,,---,0.00,VWS V14.01,2013-12-19 02:30:00,
2013-12-18 21:36:00,33.1,5.8,30.06,NW,325,0.0,0.0,31,0.00,,---,0.00,VWS V14.01,2013-12-19 02:36:00,
2013-12-18 21:42:00,33.3,5.9,30.06,WNW,282,0.0,0.0,31,0.00,,---,0.00,VWS V14.01,2013-12-19 02:42:00,
2013-12-18 21:47:00,33.3,5.9,30.06,West,280,0.0,0.0,31,0.00,,---,0.00,VWS V14.01,2013-12-19 02:47:00,
2013-12-18 21:52:00,33.3,5.9,30.06,WNW,286,0.0,0.0,31,0.00,,---,0.00,VWS V14.01,2013-12-19 02:52:00,
2013-12-18 21:57:00,33.3,5.9,30.06,SSW,206,0.0,0.0,31,0.00,,---,0.00,VWS V14.01,2013-12-19 02:57:00,
2013-12-18 22:03:00,33.4,6.1,30.06,WNW,292,0.0,0.0,31,0.00,,---,0.00,VWS V14.01,2013-12-19 03:03:00,
2013-12-18 22:08:00,33.4,6.1,30.06,WSW,254,0.0,0.0,31,0.00,,---,0.00,VWS V14.01,2013-12-19 03:08:00,
2013-12-18 22:14:00,33.4,6.1,30.06,WNW,290,0.0,0.0,31,0.00,,---,0.00,VWS V14.01,2013-12-19 03:14:00,
2013-12-18 22:19:00,33.4,6.1,30.09,WSW,249,0.0,0.0,31,0.00,,---,0.00,VWS V14.01,2013-12-19 03:19:00,
2013-12-18 22:25:00,33.3,5.9,30.09,WNW,294,0.0,0.0,31,0.00,,---,0.00,VWS V14.01,2013-12-19 03:25:00,
2013-12-18 22:30:00,33.3,5.9,30.09,WNW,283,0.0,0.0,31,0.00,,---,0.00,VWS V14.01,2013-12-19 03:30:00,
2013-12-18 22:36:00,33.4,6.1,30.06,WNW,282,0.0,0.0,31,0.00,,---,0.00,VWS V14.01,2013-12-19 03:36:00,
2013-12-18 22:42:00,33.3,3.7,30.06,West,280,0.0,0.0,28,0.00,,---,0.00,VWS V14.01,2013-12-19 03:42:00,
2013-12-18 22:47:00,33.3,5.9,30.06,WSW,250,0.0,0.0,31,0.00,,---,0.00,VWS V14.01,2013-12-19 03:47:00,
2013-12-18 22:53:00,33.3,5.9,30.06,WNW,289,0.0,0.0,31,0.00,,---,0.00,VWS V14.01,2013-12-19 03:53:00,
2013-12-18 22:59:00,33.4,6.1,30.06,West,272,0.0,0.0,31,0.00,,---,0.00,VWS V14.01,2013-12-19 03:59:00,
2013-12-18 23:04:00,33.3,5.9,30.06,SW,236,0.0,0.0,31,0.00,,---,0.00,VWS V14.01,2013-12-19 04:04:00,
2013-12-18 23:10:00,32.9,5.6,30.06,SW,220,0.0,0.0,31,0.00,,---,0.00,VWS V14.01,2013-12-19 04:10:00,
2013-12-18 23:15:00,32.5,5.3,30.06,West,267,0.0,0.0,31,0.00,,---,0.00,VWS V14.01,2013-12-19 04:15:00,
2013-12-18 23:21:00,32.5,5.3,30.06,WSW,258,0.0,0.0,31,0.00,,---,0.00,VWS V14.01,2013-12-19 04:21:00,
2013-12-18 23:27:00,32.5,5.3,30.06,SW,231,0.0,0.0,31,0.00,,---,0.00,VWS V14.01,2013-12-19 04:27:00,
2013-12-18 23:32:00,32.4,5.1,30.06,WSW,240,0.0,0.0,31,0.00,,---,0.00,VWS V14.01,2013-12-19 04:32:00,
2013-12-18 23:38:00,32.5,5.3,30.06,WNW,282,0.0,0.0,31,0.00,,---,0.00,VWS V14.01,2013-12-19 04:38:00,
2013-12-18 23:43:00,32.7,5.4,30.06,SW,230,0.0,0.0,31,0.00,,---,0.00,VWS V14.01,2013-12-19 04:43:00,
2013-12-18 23:49:00,32.7,5.4,30.06,SW,229,0.0,0.0,31,0.00,,---,0.00,VWS V14.01,2013-12-19 04:49:00,
2013-12-18 23:55:00,32.7,5.4,30.06,WSW,247,0.0,0.0,31,0.00,,---,0.00,VWS V14.01,2013-12-19 04:55:00,